sensor_id;sensor_type;location;lat;lon;timestamp;P1;durP1;ratioP1;P2;durP2;ratioP2
47025;SDS011;32783;51.756;-2.556;2023-05-13T00:02:04;2.00;;;1.65;;
47025;SDS011;32783;51.756;-2.556;2023-05-13T00:04:32;2.50;;;1.20;;
47025;SDS011;32783;51.756;-2.556;2023-05-13T00:06:58;1.73;;;1.63;;
47025;SDS011;32783;51.756;-2.556;2023-05-13T00:09:23;3.13;;;1.30;;
47025;SDS011;32783;51.756;-2.556;2023-05-13T00:11:48;1.83;;;1.65;;
47025;SDS011;32783;51.756;-2.556;2023-05-13T00:14:14;1.73;;;1.52;;
47025;SDS011;32783;51.756;-2.556;2023-05-13T00:16:39;2.97;;;1.80;;
47025;SDS011;32783;51.756;-2.556;2023-05-13T00:19:05;1.50;;;1.40;;
47025;SDS011;32783;51.756;-2.556;2023-05-13T00:21:30;1.52;;;1.30;;
47025;SDS011;32783;51.756;-2.556;2023-05-13T00:23:56;1.45;;;1.35;;
47025;SDS011;32783;51.756;-2.556;2023-05-13T00:26:22;1.90;;;1.33;;
47025;SDS011;32783;51.756;-2.556;2023-05-13T00:28:47;1.52;;;1.42;;
47025;SDS011;32783;51.756;-2.556;2023-05-13T00:31:13;1.13;;;1.02;;
47025;SDS011;32783;51.756;-2.556;2023-05-13T00:33:38;1.55;;;1.40;;
47025;SDS011;32783;51.756;-2.556;2023-05-13T00:36:04;2.22;;;1.83;;
47025;SDS011;32783;51.756;-2.556;2023-05-13T00:38:31;1.58;;;1.30;;
47025;SDS011;32783;51.756;-2.556;2023-05-13T00:40:56;1.65;;;1.55;;
47025;SDS011;32783;51.756;-2.556;2023-05-13T00:43:22;1.50;;;1.08;;
47025;SDS011;32783;51.756;-2.556;2023-05-13T00:45:47;1.42;;;1.27;;
47025;SDS011;32783;51.756;-2.556;2023-05-13T00:48:13;2.00;;;1.55;;
47025;SDS011;32783;51.756;-2.556;2023-05-13T00:50:38;1.33;;;1.17;;
47025;SDS011;32783;51.756;-2.556;2023-05-13T00:53:06;2.35;;;1.42;;
47025;SDS011;32783;51.756;-2.556;2023-05-13T00:55:31;1.63;;;1.20;;
47025;SDS011;32783;51.756;-2.556;2023-05-13T00:57:57;1.98;;;1.60;;
47025;SDS011;32783;51.756;-2.556;2023-05-13T01:00:22;1.55;;;1.38;;
47025;SDS011;32783;51.756;-2.556;2023-05-13T01:08:14;1.52;;;1.40;;
47025;SDS011;32783;51.756;-2.556;2023-05-13T01:10:50;1.92;;;1.38;;
47025;SDS011;32783;51.756;-2.556;2023-05-13T01:13:22;2.92;;;1.50;;
47025;SDS011;32783;51.756;-2.556;2023-05-13T01:15:50;1.50;;;1.40;;
47025;SDS011;32783;51.756;-2.556;2023-05-13T01:18:28;1.50;;;1.40;;
47025;SDS011;32783;51.756;-2.556;2023-05-13T01:21:05;2.13;;;1.33;;
47025;SDS011;32783;51.756;-2.556;2023-05-13T01:23:30;1.20;;;1.10;;
47025;SDS011;32783;51.756;-2.556;2023-05-13T01:25:56;1.65;;;1.20;;
47025;SDS011;32783;51.756;-2.556;2023-05-13T01:28:21;2.22;;;1.50;;
47025;SDS011;32783;51.756;-2.556;2023-05-13T01:30:47;1.48;;;1.38;;
47025;SDS011;32783;51.756;-2.556;2023-05-13T01:33:13;1.88;;;1.60;;
47025;SDS011;32783;51.756;-2.556;2023-05-13T01:35:39;1.85;;;1.48;;
47025;SDS011;32783;51.756;-2.556;2023-05-13T01:38:05;1.30;;;1.20;;
47025;SDS011;32783;51.756;-2.556;2023-05-13T01:40:30;1.30;;;1.20;;
47025;SDS011;32783;51.756;-2.556;2023-05-13T01:42:56;1.65;;;1.45;;
47025;SDS011;32783;51.756;-2.556;2023-05-13T01:45:22;1.60;;;1.50;;
47025;SDS011;32783;51.756;-2.556;2023-05-13T01:47:47;1.40;;;1.30;;
47025;SDS011;32783;51.756;-2.556;2023-05-13T01:50:12;1.73;;;1.50;;
47025;SDS011;32783;51.756;-2.556;2023-05-13T01:52:38;2.03;;;1.45;;
47025;SDS011;32783;51.756;-2.556;2023-05-13T01:55:03;2.58;;;1.50;;
47025;SDS011;32783;51.756;-2.556;2023-05-13T01:57:29;1.40;;;1.30;;
47025;SDS011;32783;51.756;-2.556;2023-05-13T01:59:54;1.98;;;1.33;;
47025;SDS011;32783;51.756;-2.556;2023-05-13T02:02:20;1.83;;;1.50;;
47025;SDS011;32783;51.756;-2.556;2023-05-13T02:04:45;1.90;;;1.30;;
47025;SDS011;32783;51.756;-2.556;2023-05-13T02:07:11;2.13;;;1.60;;
47025;SDS011;32783;51.756;-2.556;2023-05-13T02:09:36;2.10;;;1.50;;
47025;SDS011;32783;51.756;-2.556;2023-05-13T02:12:02;1.60;;;1.50;;
47025;SDS011;32783;51.756;-2.556;2023-05-13T02:14:27;1.33;;;1.17;;
47025;SDS011;32783;51.756;-2.556;2023-05-13T02:16:53;2.47;;;1.42;;
47025;SDS011;32783;51.756;-2.556;2023-05-13T02:19:18;1.45;;;1.35;;
47025;SDS011;32783;51.756;-2.556;2023-05-13T02:21:44;1.90;;;1.40;;
47025;SDS011;32783;51.756;-2.556;2023-05-13T02:24:09;1.38;;;1.27;;
47025;SDS011;32783;51.756;-2.556;2023-05-13T02:26:35;1.65;;;1.45;;
47025;SDS011;32783;51.756;-2.556;2023-05-13T02:29:00;1.45;;;1.27;;
47025;SDS011;32783;51.756;-2.556;2023-05-13T02:31:25;1.67;;;1.58;;
47025;SDS011;32783;51.756;-2.556;2023-05-13T02:33:51;1.85;;;1.65;;
47025;SDS011;32783;51.756;-2.556;2023-05-13T02:36:16;1.90;;;1.55;;
47025;SDS011;32783;51.756;-2.556;2023-05-13T02:38:42;2.38;;;1.42;;
47025;SDS011;32783;51.756;-2.556;2023-05-13T02:41:07;1.60;;;1.48;;
47025;SDS011;32783;51.756;-2.556;2023-05-13T02:43:32;1.60;;;1.30;;
47025;SDS011;32783;51.756;-2.556;2023-05-13T02:45:58;1.58;;;1.48;;
47025;SDS011;32783;51.756;-2.556;2023-05-13T02:48:23;3.17;;;1.60;;
47025;SDS011;32783;51.756;-2.556;2023-05-13T02:50:49;1.58;;;1.48;;
47025;SDS011;32783;51.756;-2.556;2023-05-13T02:53:14;1.73;;;1.27;;
47025;SDS011;32783;51.756;-2.556;2023-05-13T02:55:40;2.05;;;1.63;;
47025;SDS011;32783;51.756;-2.556;2023-05-13T02:58:05;2.55;;;1.50;;
47025;SDS011;32783;51.756;-2.556;2023-05-13T03:00:30;1.60;;;1.50;;
47025;SDS011;32783;51.756;-2.556;2023-05-13T03:02:56;1.85;;;1.70;;
47025;SDS011;32783;51.756;-2.556;2023-05-13T03:05:21;1.30;;;1.20;;
47025;SDS011;32783;51.756;-2.556;2023-05-13T03:07:47;1.80;;;1.48;;
47025;SDS011;32783;51.756;-2.556;2023-05-13T03:10:12;1.83;;;1.27;;
47025;SDS011;32783;51.756;-2.556;2023-05-13T03:12:38;1.30;;;1.20;;
47025;SDS011;32783;51.756;-2.556;2023-05-13T03:15:03;1.45;;;1.35;;
47025;SDS011;32783;51.756;-2.556;2023-05-13T03:17:29;1.52;;;1.42;;
47025;SDS011;32783;51.756;-2.556;2023-05-13T03:19:56;1.65;;;1.50;;
47025;SDS011;32783;51.756;-2.556;2023-05-13T03:22:21;1.60;;;1.50;;
47025;SDS011;32783;51.756;-2.556;2023-05-13T03:24:46;1.30;;;1.20;;
47025;SDS011;32783;51.756;-2.556;2023-05-13T03:27:12;1.40;;;1.30;;
47025;SDS011;32783;51.756;-2.556;2023-05-13T03:29:37;1.25;;;1.15;;
47025;SDS011;32783;51.756;-2.556;2023-05-13T03:32:03;1.83;;;1.70;;
47025;SDS011;32783;51.756;-2.556;2023-05-13T03:34:30;1.73;;;1.55;;
47025;SDS011;32783;51.756;-2.556;2023-05-13T03:36:56;1.80;;;1.42;;
47025;SDS011;32783;51.756;-2.556;2023-05-13T03:39:21;1.73;;;1.40;;
47025;SDS011;32783;51.756;-2.556;2023-05-13T03:41:47;1.45;;;1.10;;
47025;SDS011;32783;51.756;-2.556;2023-05-13T03:44:12;1.85;;;1.67;;
47025;SDS011;32783;51.756;-2.556;2023-05-13T03:46:37;1.40;;;1.30;;
47025;SDS011;32783;51.756;-2.556;2023-05-13T03:49:03;1.90;;;1.80;;
47025;SDS011;32783;51.756;-2.556;2023-05-13T03:51:28;1.52;;;1.25;;
47025;SDS011;32783;51.756;-2.556;2023-05-13T03:53:54;1.63;;;1.50;;
47025;SDS011;32783;51.756;-2.556;2023-05-13T03:56:19;1.20;;;1.10;;
47025;SDS011;32783;51.756;-2.556;2023-05-13T03:58:45;1.75;;;1.65;;
47025;SDS011;32783;51.756;-2.556;2023-05-13T04:01:10;1.50;;;1.40;;
47025;SDS011;32783;51.756;-2.556;2023-05-13T04:03:36;1.58;;;1.23;;
47025;SDS011;32783;51.756;-2.556;2023-05-13T04:06:01;1.20;;;1.10;;
47025;SDS011;32783;51.756;-2.556;2023-05-13T04:08:27;1.50;;;1.30;;
47025;SDS011;32783;51.756;-2.556;2023-05-13T04:10:52;1.85;;;1.52;;
47025;SDS011;32783;51.756;-2.556;2023-05-13T04:13:18;1.50;;;1.40;;
47025;SDS011;32783;51.756;-2.556;2023-05-13T04:15:43;1.50;;;1.40;;
47025;SDS011;32783;51.756;-2.556;2023-05-13T04:18:09;1.75;;;1.33;;
47025;SDS011;32783;51.756;-2.556;2023-05-13T04:20:37;1.63;;;1.52;;
47025;SDS011;32783;51.756;-2.556;2023-05-13T04:23:06;1.50;;;1.40;;
47025;SDS011;32783;51.756;-2.556;2023-05-13T04:25:31;1.67;;;1.58;;
47025;SDS011;32783;51.756;-2.556;2023-05-13T04:27:59;1.77;;;1.60;;
47025;SDS011;32783;51.756;-2.556;2023-05-13T04:30:24;1.40;;;1.30;;
47025;SDS011;32783;51.756;-2.556;2023-05-13T04:32:49;2.17;;;1.55;;
47025;SDS011;32783;51.756;-2.556;2023-05-13T04:35:15;1.45;;;1.35;;
47025;SDS011;32783;51.756;-2.556;2023-05-13T04:37:40;1.48;;;1.38;;
47025;SDS011;32783;51.756;-2.556;2023-05-13T04:40:06;1.30;;;1.20;;
47025;SDS011;32783;51.756;-2.556;2023-05-13T04:42:32;1.80;;;1.70;;
47025;SDS011;32783;51.756;-2.556;2023-05-13T04:44:57;1.33;;;1.23;;
47025;SDS011;32783;51.756;-2.556;2023-05-13T04:47:23;1.50;;;1.40;;
47025;SDS011;32783;51.756;-2.556;2023-05-13T04:49:48;1.70;;;1.60;;
47025;SDS011;32783;51.756;-2.556;2023-05-13T04:52:14;2.20;;;1.90;;
47025;SDS011;32783;51.756;-2.556;2023-05-13T04:54:39;1.60;;;1.38;;
47025;SDS011;32783;51.756;-2.556;2023-05-13T04:57:05;1.38;;;1.27;;
47025;SDS011;32783;51.756;-2.556;2023-05-13T04:59:30;1.73;;;1.23;;
47025;SDS011;32783;51.756;-2.556;2023-05-13T05:01:56;1.80;;;1.70;;
47025;SDS011;32783;51.756;-2.556;2023-05-13T05:04:21;1.70;;;1.60;;
47025;SDS011;32783;51.756;-2.556;2023-05-13T05:06:48;1.67;;;1.58;;
47025;SDS011;32783;51.756;-2.556;2023-05-13T05:09:13;1.60;;;1.50;;
47025;SDS011;32783;51.756;-2.556;2023-05-13T05:11:38;1.38;;;1.20;;
47025;SDS011;32783;51.756;-2.556;2023-05-13T05:14:04;1.50;;;1.40;;
47025;SDS011;32783;51.756;-2.556;2023-05-13T05:16:29;1.48;;;1.38;;
47025;SDS011;32783;51.756;-2.556;2023-05-13T05:18:55;1.35;;;1.25;;
47025;SDS011;32783;51.756;-2.556;2023-05-13T05:21:20;1.50;;;1.40;;
47025;SDS011;32783;51.756;-2.556;2023-05-13T05:23:46;1.30;;;1.20;;
47025;SDS011;32783;51.756;-2.556;2023-05-13T05:26:11;1.30;;;1.20;;
47025;SDS011;32783;51.756;-2.556;2023-05-13T05:28:36;1.50;;;1.40;;
47025;SDS011;32783;51.756;-2.556;2023-05-13T05:31:03;1.73;;;1.63;;
47025;SDS011;32783;51.756;-2.556;2023-05-13T05:33:29;1.27;;;1.17;;
47025;SDS011;32783;51.756;-2.556;2023-05-13T05:35:55;1.42;;;1.30;;
47025;SDS011;32783;51.756;-2.556;2023-05-13T05:38:20;1.50;;;1.40;;
47025;SDS011;32783;51.756;-2.556;2023-05-13T05:40:49;1.75;;;1.40;;
47025;SDS011;32783;51.756;-2.556;2023-05-13T05:43:14;1.50;;;1.40;;
47025;SDS011;32783;51.756;-2.556;2023-05-13T05:45:40;1.40;;;1.30;;
47025;SDS011;32783;51.756;-2.556;2023-05-13T05:48:06;1.65;;;1.55;;
47025;SDS011;32783;51.756;-2.556;2023-05-13T05:50:32;1.42;;;1.33;;
47025;SDS011;32783;51.756;-2.556;2023-05-13T05:52:57;1.50;;;1.40;;
47025;SDS011;32783;51.756;-2.556;2023-05-13T05:55:26;1.17;;;1.08;;
47025;SDS011;32783;51.756;-2.556;2023-05-13T05:57:52;1.60;;;1.50;;
47025;SDS011;32783;51.756;-2.556;2023-05-13T06:00:18;1.27;;;1.17;;
47025;SDS011;32783;51.756;-2.556;2023-05-13T06:02:44;1.25;;;1.15;;
47025;SDS011;32783;51.756;-2.556;2023-05-13T06:05:10;1.38;;;1.27;;
47025;SDS011;32783;51.756;-2.556;2023-05-13T06:07:35;1.30;;;1.20;;
47025;SDS011;32783;51.756;-2.556;2023-05-13T06:10:01;1.55;;;1.45;;
47025;SDS011;32783;51.756;-2.556;2023-05-13T06:12:26;1.33;;;1.23;;
47025;SDS011;32783;51.756;-2.556;2023-05-13T06:14:52;1.80;;;1.55;;
47025;SDS011;32783;51.756;-2.556;2023-05-13T06:17:17;1.60;;;1.40;;
47025;SDS011;32783;51.756;-2.556;2023-05-13T06:19:43;1.20;;;1.10;;
47025;SDS011;32783;51.756;-2.556;2023-05-13T06:22:08;1.45;;;1.35;;
47025;SDS011;32783;51.756;-2.556;2023-05-13T06:24:34;1.65;;;1.55;;
47025;SDS011;32783;51.756;-2.556;2023-05-13T06:27:00;1.40;;;1.30;;
47025;SDS011;32783;51.756;-2.556;2023-05-13T06:29:26;1.70;;;1.60;;
47025;SDS011;32783;51.756;-2.556;2023-05-13T06:31:51;1.58;;;1.48;;
47025;SDS011;32783;51.756;-2.556;2023-05-13T06:34:17;1.33;;;1.20;;
47025;SDS011;32783;51.756;-2.556;2023-05-13T06:36:42;2.00;;;1.77;;
47025;SDS011;32783;51.756;-2.556;2023-05-13T06:39:08;1.42;;;1.33;;
47025;SDS011;32783;51.756;-2.556;2023-05-13T06:41:35;1.27;;;1.10;;
47025;SDS011;32783;51.756;-2.556;2023-05-13T06:44:01;1.42;;;1.27;;
47025;SDS011;32783;51.756;-2.556;2023-05-13T06:46:26;1.48;;;1.38;;
47025;SDS011;32783;51.756;-2.556;2023-05-13T06:48:52;1.52;;;1.42;;
47025;SDS011;32783;51.756;-2.556;2023-05-13T06:51:19;1.40;;;1.30;;
47025;SDS011;32783;51.756;-2.556;2023-05-13T06:53:44;1.55;;;1.45;;
47025;SDS011;32783;51.756;-2.556;2023-05-13T06:56:10;1.42;;;1.33;;
47025;SDS011;32783;51.756;-2.556;2023-05-13T06:58:35;1.55;;;1.45;;
47025;SDS011;32783;51.756;-2.556;2023-05-13T07:01:01;1.95;;;1.85;;
47025;SDS011;32783;51.756;-2.556;2023-05-13T07:03:26;1.60;;;1.40;;
47025;SDS011;32783;51.756;-2.556;2023-05-13T07:05:51;1.23;;;1.13;;
47025;SDS011;32783;51.756;-2.556;2023-05-13T07:08:17;1.45;;;1.35;;
47025;SDS011;32783;51.756;-2.556;2023-05-13T07:10:42;1.63;;;1.52;;
47025;SDS011;32783;51.756;-2.556;2023-05-13T07:13:08;1.40;;;1.30;;
47025;SDS011;32783;51.756;-2.556;2023-05-13T07:15:35;1.30;;;1.20;;
47025;SDS011;32783;51.756;-2.556;2023-05-13T07:18:00;1.20;;;1.10;;
47025;SDS011;32783;51.756;-2.556;2023-05-13T07:20:26;1.33;;;1.23;;
47025;SDS011;32783;51.756;-2.556;2023-05-13T07:22:51;1.45;;;1.35;;
47025;SDS011;32783;51.756;-2.556;2023-05-13T07:25:17;1.30;;;1.20;;
47025;SDS011;32783;51.756;-2.556;2023-05-13T07:27:42;2.15;;;1.50;;
47025;SDS011;32783;51.756;-2.556;2023-05-13T07:30:08;1.50;;;1.40;;
47025;SDS011;32783;51.756;-2.556;2023-05-13T07:32:35;1.45;;;1.35;;
47025;SDS011;32783;51.756;-2.556;2023-05-13T07:35:01;1.50;;;1.40;;
47025;SDS011;32783;51.756;-2.556;2023-05-13T07:37:27;1.60;;;1.50;;
47025;SDS011;32783;51.756;-2.556;2023-05-13T07:39:53;1.95;;;1.67;;
47025;SDS011;32783;51.756;-2.556;2023-05-13T07:42:18;1.50;;;1.40;;
47025;SDS011;32783;51.756;-2.556;2023-05-13T07:44:43;1.95;;;1.25;;
47025;SDS011;32783;51.756;-2.556;2023-05-13T07:47:09;1.50;;;1.40;;
47025;SDS011;32783;51.756;-2.556;2023-05-13T07:49:34;1.33;;;1.23;;
47025;SDS011;32783;51.756;-2.556;2023-05-13T07:52:00;1.58;;;1.48;;
47025;SDS011;32783;51.756;-2.556;2023-05-13T07:54:25;1.42;;;1.33;;
47025;SDS011;32783;51.756;-2.556;2023-05-13T07:56:51;1.67;;;1.40;;
47025;SDS011;32783;51.756;-2.556;2023-05-13T07:59:16;2.88;;;1.63;;
47025;SDS011;32783;51.756;-2.556;2023-05-13T08:01:42;5.28;;;1.45;;
47025;SDS011;32783;51.756;-2.556;2023-05-13T08:04:08;3.28;;;1.42;;
47025;SDS011;32783;51.756;-2.556;2023-05-13T08:06:33;1.50;;;1.40;;
47025;SDS011;32783;51.756;-2.556;2023-05-13T08:08:58;1.75;;;1.33;;
47025;SDS011;32783;51.756;-2.556;2023-05-13T08:11:25;3.03;;;1.42;;
47025;SDS011;32783;51.756;-2.556;2023-05-13T08:13:50;1.55;;;1.35;;
47025;SDS011;32783;51.756;-2.556;2023-05-13T08:16:16;1.60;;;1.50;;
47025;SDS011;32783;51.756;-2.556;2023-05-13T08:18:41;1.98;;;1.75;;
47025;SDS011;32783;51.756;-2.556;2023-05-13T08:21:07;1.63;;;1.52;;
47025;SDS011;32783;51.756;-2.556;2023-05-13T08:23:33;1.38;;;1.27;;
47025;SDS011;32783;51.756;-2.556;2023-05-13T08:25:59;1.60;;;1.50;;
47025;SDS011;32783;51.756;-2.556;2023-05-13T08:28:24;1.75;;;1.65;;
47025;SDS011;32783;51.756;-2.556;2023-05-13T08:30:51;1.63;;;1.52;;
47025;SDS011;32783;51.756;-2.556;2023-05-13T08:33:16;1.67;;;1.58;;
47025;SDS011;32783;51.756;-2.556;2023-05-13T08:35:42;1.73;;;1.40;;
47025;SDS011;32783;51.756;-2.556;2023-05-13T08:38:07;2.38;;;1.63;;
47025;SDS011;32783;51.756;-2.556;2023-05-13T08:40:32;3.05;;;1.70;;
47025;SDS011;32783;51.756;-2.556;2023-05-13T08:42:59;2.13;;;1.50;;
47025;SDS011;32783;51.756;-2.556;2023-05-13T08:45:27;1.88;;;1.67;;
47025;SDS011;32783;51.756;-2.556;2023-05-13T08:47:55;3.83;;;2.43;;
47025;SDS011;32783;51.756;-2.556;2023-05-13T08:50:22;4.00;;;1.88;;
47025;SDS011;32783;51.756;-2.556;2023-05-13T08:52:49;4.15;;;2.35;;
47025;SDS011;32783;51.756;-2.556;2023-05-13T08:55:17;4.40;;;2.13;;
47025;SDS011;32783;51.756;-2.556;2023-05-13T08:57:43;2.58;;;1.60;;
47025;SDS011;32783;51.756;-2.556;2023-05-13T09:00:09;2.75;;;1.48;;
47025;SDS011;32783;51.756;-2.556;2023-05-13T09:02:34;2.38;;;1.55;;
47025;SDS011;32783;51.756;-2.556;2023-05-13T09:05:01;2.22;;;1.80;;
47025;SDS011;32783;51.756;-2.556;2023-05-13T09:07:30;4.25;;;2.25;;
47025;SDS011;32783;51.756;-2.556;2023-05-13T09:09:56;2.72;;;1.67;;
47025;SDS011;32783;51.756;-2.556;2023-05-13T09:17:42;3.72;;;1.60;;
47025;SDS011;32783;51.756;-2.556;2023-05-13T09:20:12;3.83;;;1.73;;
47025;SDS011;32783;51.756;-2.556;2023-05-13T09:22:46;1.58;;;1.42;;
47025;SDS011;32783;51.756;-2.556;2023-05-13T09:25:13;3.50;;;1.80;;
47025;SDS011;32783;51.756;-2.556;2023-05-13T09:27:41;1.75;;;1.65;;
47025;SDS011;32783;51.756;-2.556;2023-05-13T09:30:08;2.78;;;1.52;;
47025;SDS011;32783;51.756;-2.556;2023-05-13T09:32:34;2.47;;;1.60;;
47025;SDS011;32783;51.756;-2.556;2023-05-13T09:35:33;2.70;;;1.58;;
47025;SDS011;32783;51.756;-2.556;2023-05-13T09:37:51;2.08;;;1.40;;
47025;SDS011;32783;51.756;-2.556;2023-05-13T09:40:17;1.50;;;1.20;;
47025;SDS011;32783;51.756;-2.556;2023-05-13T09:42:43;1.65;;;1.50;;
47025;SDS011;32783;51.756;-2.556;2023-05-13T09:45:13;3.40;;;1.80;;
47025;SDS011;32783;51.756;-2.556;2023-05-13T09:47:39;1.75;;;1.63;;
47025;SDS011;32783;51.756;-2.556;2023-05-13T09:50:06;1.67;;;1.48;;
47025;SDS011;32783;51.756;-2.556;2023-05-13T09:52:33;2.10;;;1.38;;
47025;SDS011;32783;51.756;-2.556;2023-05-13T09:55:00;2.47;;;2.00;;
47025;SDS011;32783;51.756;-2.556;2023-05-13T09:57:29;3.55;;;1.90;;
47025;SDS011;32783;51.756;-2.556;2023-05-13T09:59:55;2.30;;;1.90;;
47025;SDS011;32783;51.756;-2.556;2023-05-13T10:02:24;2.30;;;2.00;;
47025;SDS011;32783;51.756;-2.556;2023-05-13T10:04:51;1.75;;;1.65;;
47025;SDS011;32783;51.756;-2.556;2023-05-13T10:07:18;2.13;;;1.45;;
47025;SDS011;32783;51.756;-2.556;2023-05-13T10:09:48;4.50;;;1.65;;
47025;SDS011;32783;51.756;-2.556;2023-05-13T10:12:16;2.50;;;1.60;;
47025;SDS011;32783;51.756;-2.556;2023-05-13T10:14:44;2.15;;;1.63;;
47025;SDS011;32783;51.756;-2.556;2023-05-13T10:17:11;1.85;;;1.75;;
47025;SDS011;32783;51.756;-2.556;2023-05-13T10:19:36;3.00;;;2.70;;
47025;SDS011;32783;51.756;-2.556;2023-05-13T10:22:02;4.00;;;3.17;;
47025;SDS011;32783;51.756;-2.556;2023-05-13T10:24:27;8.32;;;7.55;;
47025;SDS011;32783;51.756;-2.556;2023-05-13T10:26:53;16.00;;;11.95;;
47025;SDS011;32783;51.756;-2.556;2023-05-13T10:29:20;19.20;;;17.40;;
47025;SDS011;32783;51.756;-2.556;2023-05-13T10:31:46;19.02;;;17.13;;
47025;SDS011;32783;51.756;-2.556;2023-05-13T10:34:12;16.08;;;14.57;;
47025;SDS011;32783;51.756;-2.556;2023-05-13T10:36:41;9.07;;;8.27;;
47025;SDS011;32783;51.756;-2.556;2023-05-13T10:44:32;8.23;;;7.43;;
47025;SDS011;32783;51.756;-2.556;2023-05-13T10:46:57;7.57;;;6.88;;
47025;SDS011;32783;51.756;-2.556;2023-05-13T10:49:23;6.88;;;6.28;;
47025;SDS011;32783;51.756;-2.556;2023-05-13T10:51:51;6.53;;;5.93;;
47025;SDS011;32783;51.756;-2.556;2023-05-13T10:54:17;8.00;;;7.20;;
47025;SDS011;32783;51.756;-2.556;2023-05-13T10:56:44;8.40;;;7.45;;
47025;SDS011;32783;51.756;-2.556;2023-05-13T10:59:09;9.02;;;8.07;;
47025;SDS011;32783;51.756;-2.556;2023-05-13T11:01:37;7.68;;;6.93;;
47025;SDS011;32783;51.756;-2.556;2023-05-13T11:04:13;7.63;;;7.03;;
47025;SDS011;32783;51.756;-2.556;2023-05-13T11:06:40;8.98;;;7.32;;
47025;SDS011;32783;51.756;-2.556;2023-05-13T11:09:08;6.28;;;5.72;;
47025;SDS011;32783;51.756;-2.556;2023-05-13T11:11:37;7.03;;;6.43;;
47025;SDS011;32783;51.756;-2.556;2023-05-13T11:17:06;6.65;;;6.03;;
47025;SDS011;32783;51.756;-2.556;2023-05-13T11:19:36;7.15;;;6.45;;
47025;SDS011;32783;51.756;-2.556;2023-05-13T11:24:34;6.43;;;5.93;;
47025;SDS011;32783;51.756;-2.556;2023-05-13T11:27:11;6.28;;;5.75;;
47025;SDS011;32783;51.756;-2.556;2023-05-13T11:29:48;6.88;;;6.30;;
47025;SDS011;32783;51.756;-2.556;2023-05-13T11:32:14;6.82;;;6.22;;
47025;SDS011;32783;51.756;-2.556;2023-05-13T11:34:48;7.13;;;6.13;;
47025;SDS011;32783;51.756;-2.556;2023-05-13T11:37:14;6.03;;;5.53;;
47025;SDS011;32783;51.756;-2.556;2023-05-13T11:39:40;6.43;;;5.82;;
47025;SDS011;32783;51.756;-2.556;2023-05-13T11:42:06;6.28;;;5.72;;
47025;SDS011;32783;51.756;-2.556;2023-05-13T11:44:33;6.70;;;6.10;;
47025;SDS011;32783;51.756;-2.556;2023-05-13T11:47:00;7.15;;;6.55;;
47025;SDS011;32783;51.756;-2.556;2023-05-13T11:49:34;7.00;;;6.27;;
47025;SDS011;32783;51.756;-2.556;2023-05-13T11:52:07;5.97;;;5.43;;
47025;SDS011;32783;51.756;-2.556;2023-05-13T11:57:17;5.95;;;5.35;;
47025;SDS011;32783;51.756;-2.556;2023-05-13T12:00:03;5.82;;;5.32;;
47025;SDS011;32783;51.756;-2.556;2023-05-13T12:02:34;5.88;;;5.05;;
47025;SDS011;32783;51.756;-2.556;2023-05-13T12:05:01;5.45;;;4.82;;
47025;SDS011;32783;51.756;-2.556;2023-05-13T12:07:31;5.70;;;5.20;;
47025;SDS011;32783;51.756;-2.556;2023-05-13T12:09:57;4.90;;;4.55;;
47025;SDS011;32783;51.756;-2.556;2023-05-13T12:12:24;6.15;;;5.55;;
47025;SDS011;32783;51.756;-2.556;2023-05-13T12:14:50;5.68;;;5.05;;
47025;SDS011;32783;51.756;-2.556;2023-05-13T12:17:17;6.43;;;4.63;;
47025;SDS011;32783;51.756;-2.556;2023-05-13T12:20:05;8.68;;;6.30;;
47025;SDS011;32783;51.756;-2.556;2023-05-13T12:22:34;5.72;;;5.18;;
47025;SDS011;32783;51.756;-2.556;2023-05-13T12:25:01;6.95;;;5.63;;
47025;SDS011;32783;51.756;-2.556;2023-05-13T12:28:10;5.53;;;4.95;;
47025;SDS011;32783;51.756;-2.556;2023-05-13T12:30:59;4.80;;;4.30;;
47025;SDS011;32783;51.756;-2.556;2023-05-13T12:33:25;7.30;;;4.45;;
47025;SDS011;32783;51.756;-2.556;2023-05-13T12:36:25;5.30;;;4.70;;
47025;SDS011;32783;51.756;-2.556;2023-05-13T12:39:06;5.97;;;4.57;;
47025;SDS011;32783;51.756;-2.556;2023-05-13T12:41:39;4.43;;;4.03;;
47025;SDS011;32783;51.756;-2.556;2023-05-13T12:44:09;5.97;;;4.43;;
47025;SDS011;32783;51.756;-2.556;2023-05-13T12:46:37;4.70;;;4.28;;
47025;SDS011;32783;51.756;-2.556;2023-05-13T12:49:04;4.03;;;3.72;;
47025;SDS011;32783;51.756;-2.556;2023-05-13T12:51:30;5.60;;;4.13;;
47025;SDS011;32783;51.756;-2.556;2023-05-13T12:53:57;6.03;;;4.53;;
47025;SDS011;32783;51.756;-2.556;2023-05-13T12:56:23;4.10;;;3.67;;
47025;SDS011;32783;51.756;-2.556;2023-05-13T12:58:50;5.45;;;4.22;;
47025;SDS011;32783;51.756;-2.556;2023-05-13T13:01:17;4.90;;;4.40;;
47025;SDS011;32783;51.756;-2.556;2023-05-13T13:03:43;7.03;;;4.55;;
47025;SDS011;32783;51.756;-2.556;2023-05-13T13:06:08;5.78;;;4.50;;
47025;SDS011;32783;51.756;-2.556;2023-05-13T13:08:34;4.53;;;4.03;;
47025;SDS011;32783;51.756;-2.556;2023-05-13T13:11:00;4.30;;;3.60;;
47025;SDS011;32783;51.756;-2.556;2023-05-13T13:13:26;4.53;;;3.90;;
47025;SDS011;32783;51.756;-2.556;2023-05-13T13:15:52;4.05;;;3.75;;
47025;SDS011;32783;51.756;-2.556;2023-05-13T13:18:17;5.63;;;4.07;;
47025;SDS011;32783;51.756;-2.556;2023-05-13T13:20:42;4.15;;;3.85;;
47025;SDS011;32783;51.756;-2.556;2023-05-13T13:23:08;4.05;;;3.10;;
47025;SDS011;32783;51.756;-2.556;2023-05-13T13:25:34;4.63;;;3.60;;
47025;SDS011;32783;51.756;-2.556;2023-05-13T13:28:00;4.07;;;3.78;;
47025;SDS011;32783;51.756;-2.556;2023-05-13T13:30:26;5.40;;;3.75;;
47025;SDS011;32783;51.756;-2.556;2023-05-13T13:32:51;4.53;;;3.72;;
47025;SDS011;32783;51.756;-2.556;2023-05-13T13:35:17;5.30;;;3.50;;
47025;SDS011;32783;51.756;-2.556;2023-05-13T13:37:42;3.70;;;3.38;;
47025;SDS011;32783;51.756;-2.556;2023-05-13T13:40:09;3.72;;;3.42;;
47025;SDS011;32783;51.756;-2.556;2023-05-13T13:42:35;4.47;;;3.58;;
47025;SDS011;32783;51.756;-2.556;2023-05-13T13:45:00;3.75;;;3.45;;
47025;SDS011;32783;51.756;-2.556;2023-05-13T13:47:27;4.15;;;3.60;;
47025;SDS011;32783;51.756;-2.556;2023-05-13T13:49:53;7.15;;;4.90;;
47025;SDS011;32783;51.756;-2.556;2023-05-13T13:52:18;3.95;;;3.60;;
47025;SDS011;32783;51.756;-2.556;2023-05-13T13:54:43;3.70;;;3.40;;
47025;SDS011;32783;51.756;-2.556;2023-05-13T13:57:09;3.83;;;3.22;;
47025;SDS011;32783;51.756;-2.556;2023-05-13T13:59:34;4.10;;;3.40;;
47025;SDS011;32783;51.756;-2.556;2023-05-13T14:02:00;3.40;;;2.85;;
47025;SDS011;32783;51.756;-2.556;2023-05-13T14:04:25;3.67;;;3.38;;
47025;SDS011;32783;51.756;-2.556;2023-05-13T14:06:52;6.30;;;4.00;;
47025;SDS011;32783;51.756;-2.556;2023-05-13T14:09:19;3.70;;;3.40;;
47025;SDS011;32783;51.756;-2.556;2023-05-13T14:11:44;3.38;;;3.05;;
47025;SDS011;32783;51.756;-2.556;2023-05-13T14:14:10;3.58;;;3.28;;
47025;SDS011;32783;51.756;-2.556;2023-05-13T14:16:35;8.30;;;4.03;;
47025;SDS011;32783;51.756;-2.556;2023-05-13T14:19:01;3.28;;;2.97;;
47025;SDS011;32783;51.756;-2.556;2023-05-13T14:21:26;4.35;;;3.67;;
47025;SDS011;32783;51.756;-2.556;2023-05-13T14:23:52;3.65;;;3.35;;
47025;SDS011;32783;51.756;-2.556;2023-05-13T14:26:17;4.15;;;3.03;;
47025;SDS011;32783;51.756;-2.556;2023-05-13T14:28:43;3.10;;;2.90;;
47025;SDS011;32783;51.756;-2.556;2023-05-13T14:31:08;4.15;;;3.63;;
47025;SDS011;32783;51.756;-2.556;2023-05-13T14:33:34;4.90;;;2.92;;
47025;SDS011;32783;51.756;-2.556;2023-05-13T14:35:59;3.97;;;3.65;;
47025;SDS011;32783;51.756;-2.556;2023-05-13T14:38:25;4.72;;;4.03;;
47025;SDS011;32783;51.756;-2.556;2023-05-13T14:40:51;3.90;;;3.47;;
47025;SDS011;32783;51.756;-2.556;2023-05-13T14:43:19;3.80;;;3.35;;
47025;SDS011;32783;51.756;-2.556;2023-05-13T14:45:45;3.60;;;2.90;;
47025;SDS011;32783;51.756;-2.556;2023-05-13T14:48:11;4.82;;;3.20;;
47025;SDS011;32783;51.756;-2.556;2023-05-13T14:50:36;5.05;;;3.00;;
47025;SDS011;32783;51.756;-2.556;2023-05-13T14:53:01;4.10;;;3.25;;
47025;SDS011;32783;51.756;-2.556;2023-05-13T14:55:27;4.32;;;3.08;;